sensor_id;sensor_type;location;lat;lon;timestamp;P1;durP1;ratioP1;P2;durP2;ratioP2
22929;SDS011;11630;42.660;23.292;2023-04-03T00:01:42;6.50;;;2.93;;
22929;SDS011;11630;42.660;23.292;2023-04-03T00:04:13;4.50;;;2.90;;
22929;SDS011;11630;42.660;23.292;2023-04-03T00:06:46;3.83;;;2.60;;
22929;SDS011;11630;42.660;23.292;2023-04-03T00:09:17;3.33;;;2.87;;
22929;SDS011;11630;42.660;23.292;2023-04-03T00:11:48;3.93;;;3.07;;
22929;SDS011;11630;42.660;23.292;2023-04-03T00:14:19;5.10;;;3.33;;
22929;SDS011;11630;42.660;23.292;2023-04-03T00:16:50;4.87;;;3.20;;
22929;SDS011;11630;42.660;23.292;2023-04-03T00:19:20;6.00;;;3.17;;
22929;SDS011;11630;42.660;23.292;2023-04-03T00:21:52;8.00;;;3.83;;
22929;SDS011;11630;42.660;23.292;2023-04-03T00:24:23;6.87;;;2.90;;
22929;SDS011;11630;42.660;23.292;2023-04-03T00:26:54;5.17;;;2.83;;
22929;SDS011;11630;42.660;23.292;2023-04-03T00:29:25;7.80;;;3.37;;
22929;SDS011;11630;42.660;23.292;2023-04-03T00:31:55;5.10;;;3.03;;
22929;SDS011;11630;42.660;23.292;2023-04-03T00:34:25;3.93;;;2.87;;
22929;SDS011;11630;42.660;23.292;2023-04-03T00:36:56;5.10;;;3.27;;
22929;SDS011;11630;42.660;23.292;2023-04-03T00:39:27;5.80;;;2.80;;
22929;SDS011;11630;42.660;23.292;2023-04-03T00:41:57;5.57;;;2.73;;
22929;SDS011;11630;42.660;23.292;2023-04-03T00:47:11;3.83;;;2.97;;
22929;SDS011;11630;42.660;23.292;2023-04-03T00:49:42;3.83;;;2.87;;
22929;SDS011;11630;42.660;23.292;2023-04-03T00:52:15;6.60;;;3.10;;
22929;SDS011;11630;42.660;23.292;2023-04-03T00:54:47;3.50;;;2.93;;
22929;SDS011;11630;42.660;23.292;2023-04-03T00:57:19;4.57;;;3.70;;
22929;SDS011;11630;42.660;23.292;2023-04-03T00:59:50;4.83;;;3.93;;
22929;SDS011;11630;42.660;23.292;2023-04-03T01:02:24;4.37;;;3.53;;
22929;SDS011;11630;42.660;23.292;2023-04-03T01:04:55;4.83;;;4.13;;
22929;SDS011;11630;42.660;23.292;2023-04-03T01:07:29;5.57;;;3.83;;
22929;SDS011;11630;42.660;23.292;2023-04-03T01:10:07;4.50;;;3.40;;
22929;SDS011;11630;42.660;23.292;2023-04-03T01:12:39;3.40;;;3.10;;
22929;SDS011;11630;42.660;23.292;2023-04-03T01:15:13;4.43;;;3.40;;
22929;SDS011;11630;42.660;23.292;2023-04-03T01:17:50;4.43;;;3.00;;
22929;SDS011;11630;42.660;23.292;2023-04-03T01:23:22;4.77;;;3.53;;
22929;SDS011;11630;42.660;23.292;2023-04-03T01:26:05;5.97;;;3.57;;
22929;SDS011;11630;42.660;23.292;2023-04-03T01:28:36;4.47;;;3.73;;
22929;SDS011;11630;42.660;23.292;2023-04-03T01:31:21;5.23;;;3.40;;
22929;SDS011;11630;42.660;23.292;2023-04-03T01:33:57;7.80;;;3.60;;
22929;SDS011;11630;42.660;23.292;2023-04-03T01:36:30;7.93;;;3.23;;
22929;SDS011;11630;42.660;23.292;2023-04-03T01:39:01;3.23;;;2.93;;
22929;SDS011;11630;42.660;23.292;2023-04-03T01:41:32;5.83;;;3.37;;
22929;SDS011;11630;42.660;23.292;2023-04-03T01:44:03;4.67;;;3.50;;
22929;SDS011;11630;42.660;23.292;2023-04-03T01:46:34;4.07;;;3.40;;
22929;SDS011;11630;42.660;23.292;2023-04-03T01:49:05;4.90;;;3.60;;
22929;SDS011;11630;42.660;23.292;2023-04-03T01:51:36;4.50;;;3.20;;
22929;SDS011;11630;42.660;23.292;2023-04-03T01:54:07;8.00;;;3.50;;
22929;SDS011;11630;42.660;23.292;2023-04-03T01:56:38;4.30;;;3.20;;
22929;SDS011;11630;42.660;23.292;2023-04-03T01:59:09;3.77;;;3.37;;
22929;SDS011;11630;42.660;23.292;2023-04-03T02:01:40;3.40;;;3.07;;
22929;SDS011;11630;42.660;23.292;2023-04-03T02:04:11;4.20;;;3.50;;
22929;SDS011;11630;42.660;23.292;2023-04-03T02:06:41;7.77;;;3.10;;
22929;SDS011;11630;42.660;23.292;2023-04-03T02:09:13;4.53;;;2.90;;
22929;SDS011;11630;42.660;23.292;2023-04-03T02:11:46;7.57;;;3.43;;
22929;SDS011;11630;42.660;23.292;2023-04-03T02:14:17;3.57;;;3.03;;
22929;SDS011;11630;42.660;23.292;2023-04-03T02:16:48;5.93;;;3.40;;
22929;SDS011;11630;42.660;23.292;2023-04-03T02:19:19;4.73;;;3.63;;
22929;SDS011;11630;42.660;23.292;2023-04-03T02:21:51;6.13;;;4.83;;
22929;SDS011;11630;42.660;23.292;2023-04-03T02:24:22;7.57;;;5.13;;
22929;SDS011;11630;42.660;23.292;2023-04-03T02:26:53;5.20;;;4.33;;
22929;SDS011;11630;42.660;23.292;2023-04-03T02:29:24;7.77;;;4.73;;
22929;SDS011;11630;42.660;23.292;2023-04-03T02:31:54;4.90;;;3.60;;
22929;SDS011;11630;42.660;23.292;2023-04-03T02:34:25;5.63;;;4.40;;
22929;SDS011;11630;42.660;23.292;2023-04-03T02:36:55;7.10;;;4.53;;
22929;SDS011;11630;42.660;23.292;2023-04-03T02:39:26;6.63;;;4.20;;
22929;SDS011;11630;42.660;23.292;2023-04-03T02:41:57;8.67;;;4.43;;
22929;SDS011;11630;42.660;23.292;2023-04-03T02:44:28;6.00;;;4.23;;
22929;SDS011;11630;42.660;23.292;2023-04-03T02:46:59;10.00;;;4.30;;
22929;SDS011;11630;42.660;23.292;2023-04-03T02:49:30;9.13;;;4.10;;
22929;SDS011;11630;42.660;23.292;2023-04-03T02:52:01;8.70;;;4.27;;
22929;SDS011;11630;42.660;23.292;2023-04-03T02:54:32;5.17;;;4.10;;
22929;SDS011;11630;42.660;23.292;2023-04-03T02:57:02;10.70;;;4.27;;
22929;SDS011;11630;42.660;23.292;2023-04-03T02:59:32;6.60;;;4.10;;
22929;SDS011;11630;42.660;23.292;2023-04-03T03:02:04;6.50;;;3.53;;
22929;SDS011;11630;42.660;23.292;2023-04-03T03:04:36;4.07;;;3.67;;
22929;SDS011;11630;42.660;23.292;2023-04-03T03:07:07;6.97;;;3.67;;
22929;SDS011;11630;42.660;23.292;2023-04-03T03:09:38;4.30;;;3.70;;
22929;SDS011;11630;42.660;23.292;2023-04-03T03:12:09;5.40;;;4.63;;
22929;SDS011;11630;42.660;23.292;2023-04-03T03:14:39;14.60;;;5.80;;
22929;SDS011;11630;42.660;23.292;2023-04-03T03:17:11;10.17;;;5.90;;
22929;SDS011;11630;42.660;23.292;2023-04-03T03:19:44;9.23;;;6.30;;
22929;SDS011;11630;42.660;23.292;2023-04-03T03:22:16;8.20;;;4.53;;
22929;SDS011;11630;42.660;23.292;2023-04-03T03:24:47;6.23;;;4.30;;
22929;SDS011;11630;42.660;23.292;2023-04-03T03:27:18;6.97;;;4.33;;
22929;SDS011;11630;42.660;23.292;2023-04-03T03:29:49;10.77;;;5.83;;
22929;SDS011;11630;42.660;23.292;2023-04-03T03:32:19;9.50;;;4.47;;
22929;SDS011;11630;42.660;23.292;2023-04-03T03:34:50;8.40;;;4.10;;
22929;SDS011;11630;42.660;23.292;2023-04-03T03:37:21;8.30;;;4.97;;
22929;SDS011;11630;42.660;23.292;2023-04-03T03:39:52;7.17;;;4.40;;
22929;SDS011;11630;42.660;23.292;2023-04-03T03:42:23;7.53;;;4.13;;
22929;SDS011;11630;42.660;23.292;2023-04-03T03:44:54;8.47;;;4.50;;
22929;SDS011;11630;42.660;23.292;2023-04-03T03:47:24;10.63;;;6.57;;
22929;SDS011;11630;42.660;23.292;2023-04-03T03:49:55;25.67;;;13.27;;
22929;SDS011;11630;42.660;23.292;2023-04-03T03:52:27;10.77;;;5.93;;
22929;SDS011;11630;42.660;23.292;2023-04-03T03:54:57;15.40;;;5.40;;
22929;SDS011;11630;42.660;23.292;2023-04-03T03:57:28;12.57;;;5.47;;
22929;SDS011;11630;42.660;23.292;2023-04-03T03:59:59;6.27;;;4.47;;
22929;SDS011;11630;42.660;23.292;2023-04-03T04:02:30;9.33;;;5.40;;
22929;SDS011;11630;42.660;23.292;2023-04-03T04:05:01;9.50;;;4.90;;
22929;SDS011;11630;42.660;23.292;2023-04-03T04:07:32;6.90;;;5.20;;
22929;SDS011;11630;42.660;23.292;2023-04-03T04:10:04;10.23;;;5.57;;
22929;SDS011;11630;42.660;23.292;2023-04-03T04:12:35;13.23;;;6.87;;
22929;SDS011;11630;42.660;23.292;2023-04-03T04:15:07;11.90;;;4.93;;
22929;SDS011;11630;42.660;23.292;2023-04-03T04:17:40;16.10;;;5.67;;
22929;SDS011;11630;42.660;23.292;2023-04-03T04:20:11;9.93;;;5.63;;
22929;SDS011;11630;42.660;23.292;2023-04-03T04:22:42;12.30;;;6.00;;
22929;SDS011;11630;42.660;23.292;2023-04-03T04:25:12;22.60;;;6.57;;
22929;SDS011;11630;42.660;23.292;2023-04-03T04:27:43;18.87;;;6.40;;
22929;SDS011;11630;42.660;23.292;2023-04-03T04:30:15;29.07;;;8.03;;
22929;SDS011;11630;42.660;23.292;2023-04-03T04:32:46;36.13;;;10.23;;
22929;SDS011;11630;42.660;23.292;2023-04-03T04:35:17;30.63;;;8.67;;
22929;SDS011;11630;42.660;23.292;2023-04-03T04:37:47;18.00;;;7.67;;
22929;SDS011;11630;42.660;23.292;2023-04-03T04:40:19;10.90;;;5.83;;
22929;SDS011;11630;42.660;23.292;2023-04-03T04:42:49;11.93;;;5.30;;
22929;SDS011;11630;42.660;23.292;2023-04-03T04:45:20;15.67;;;6.43;;
22929;SDS011;11630;42.660;23.292;2023-04-03T04:47:51;31.47;;;8.00;;
22929;SDS011;11630;42.660;23.292;2023-04-03T04:50:23;14.40;;;5.90;;
22929;SDS011;11630;42.660;23.292;2023-04-03T04:52:53;23.50;;;6.43;;
22929;SDS011;11630;42.660;23.292;2023-04-03T04:55:25;28.47;;;6.77;;
22929;SDS011;11630;42.660;23.292;2023-04-03T04:57:55;13.47;;;6.30;;
22929;SDS011;11630;42.660;23.292;2023-04-03T05:00:25;27.83;;;6.90;;
22929;SDS011;11630;42.660;23.292;2023-04-03T05:02:55;13.23;;;6.23;;
22929;SDS011;11630;42.660;23.292;2023-04-03T05:05:26;35.20;;;7.80;;
22929;SDS011;11630;42.660;23.292;2023-04-03T05:07:57;32.20;;;8.30;;
22929;SDS011;11630;42.660;23.292;2023-04-03T05:10:28;13.00;;;8.43;;
22929;SDS011;11630;42.660;23.292;2023-04-03T05:12:59;14.13;;;7.33;;
22929;SDS011;11630;42.660;23.292;2023-04-03T05:15:30;27.57;;;7.50;;
22929;SDS011;11630;42.660;23.292;2023-04-03T05:18:01;38.77;;;8.80;;
22929;SDS011;11630;42.660;23.292;2023-04-03T05:20:32;20.47;;;7.30;;
22929;SDS011;11630;42.660;23.292;2023-04-03T05:23:04;24.37;;;9.30;;
22929;SDS011;11630;42.660;23.292;2023-04-03T05:25:38;37.57;;;9.97;;
22929;SDS011;11630;42.660;23.292;2023-04-03T05:28:08;23.07;;;10.00;;
22929;SDS011;11630;42.660;23.292;2023-04-03T05:30:39;40.70;;;11.50;;
22929;SDS011;11630;42.660;23.292;2023-04-03T05:33:10;34.37;;;11.17;;
22929;SDS011;11630;42.660;23.292;2023-04-03T05:35:42;26.80;;;10.07;;
22929;SDS011;11630;42.660;23.292;2023-04-03T05:38:13;19.27;;;10.63;;
22929;SDS011;11630;42.660;23.292;2023-04-03T05:40:43;21.47;;;10.30;;
22929;SDS011;11630;42.660;23.292;2023-04-03T05:43:14;12.53;;;9.10;;
22929;SDS011;11630;42.660;23.292;2023-04-03T05:45:45;20.47;;;9.23;;
22929;SDS011;11630;42.660;23.292;2023-04-03T05:48:19;24.73;;;9.60;;
22929;SDS011;11630;42.660;23.292;2023-04-03T05:50:50;23.10;;;9.80;;
22929;SDS011;11630;42.660;23.292;2023-04-03T05:53:25;16.40;;;8.63;;
22929;SDS011;11630;42.660;23.292;2023-04-03T05:55:57;21.07;;;9.50;;
22929;SDS011;11630;42.660;23.292;2023-04-03T05:58:28;27.23;;;9.47;;
22929;SDS011;11630;42.660;23.292;2023-04-03T06:00:59;28.73;;;12.20;;
22929;SDS011;11630;42.660;23.292;2023-04-03T06:03:34;40.13;;;11.73;;
22929;SDS011;11630;42.660;23.292;2023-04-03T06:06:04;15.67;;;8.40;;
22929;SDS011;11630;42.660;23.292;2023-04-03T06:08:35;30.40;;;10.40;;
22929;SDS011;11630;42.660;23.292;2023-04-03T06:11:06;21.23;;;8.73;;
22929;SDS011;11630;42.660;23.292;2023-04-03T06:13:37;20.10;;;10.13;;
22929;SDS011;11630;42.660;23.292;2023-04-03T06:16:11;16.93;;;11.67;;
22929;SDS011;11630;42.660;23.292;2023-04-03T06:18:40;20.47;;;14.83;;
22929;SDS011;11630;42.660;23.292;2023-04-03T06:21:11;23.80;;;17.30;;
22929;SDS011;11630;42.660;23.292;2023-04-03T06:23:42;19.77;;;17.47;;
22929;SDS011;11630;42.660;23.292;2023-04-03T06:26:13;30.60;;;18.93;;
22929;SDS011;11630;42.660;23.292;2023-04-03T06:28:46;30.87;;;20.03;;
22929;SDS011;11630;42.660;23.292;2023-04-03T06:31:17;52.40;;;20.60;;
22929;SDS011;11630;42.660;23.292;2023-04-03T06:33:47;22.77;;;17.07;;
22929;SDS011;11630;42.660;23.292;2023-04-03T06:36:19;25.30;;;16.63;;
22929;SDS011;11630;42.660;23.292;2023-04-03T06:38:50;30.80;;;14.27;;
22929;SDS011;11630;42.660;23.292;2023-04-03T06:41:21;19.03;;;12.90;;
22929;SDS011;11630;42.660;23.292;2023-04-03T06:43:52;23.17;;;11.40;;
22929;SDS011;11630;42.660;23.292;2023-04-03T06:46:22;15.57;;;10.07;;
22929;SDS011;11630;42.660;23.292;2023-04-03T06:48:53;27.43;;;11.40;;
22929;SDS011;11630;42.660;23.292;2023-04-03T06:51:25;12.77;;;10.53;;
22929;SDS011;11630;42.660;23.292;2023-04-03T06:53:58;15.80;;;9.37;;
22929;SDS011;11630;42.660;23.292;2023-04-03T06:56:29;12.73;;;8.30;;
22929;SDS011;11630;42.660;23.292;2023-04-03T06:59:05;14.67;;;8.27;;
22929;SDS011;11630;42.660;23.292;2023-04-03T07:01:39;14.80;;;7.87;;
22929;SDS011;11630;42.660;23.292;2023-04-03T07:04:10;17.30;;;8.97;;
22929;SDS011;11630;42.660;23.292;2023-04-03T07:06:41;11.30;;;7.90;;
22929;SDS011;11630;42.660;23.292;2023-04-03T07:09:12;12.20;;;7.00;;
22929;SDS011;11630;42.660;23.292;2023-04-03T07:11:43;16.07;;;8.43;;
22929;SDS011;11630;42.660;23.292;2023-04-03T07:14:14;12.87;;;9.37;;
22929;SDS011;11630;42.660;23.292;2023-04-03T07:16:44;15.07;;;9.47;;
22929;SDS011;11630;42.660;23.292;2023-04-03T07:19:15;20.10;;;9.37;;
22929;SDS011;11630;42.660;23.292;2023-04-03T07:21:45;16.83;;;10.87;;
22929;SDS011;11630;42.660;23.292;2023-04-03T07:24:16;24.23;;;9.47;;
22929;SDS011;11630;42.660;23.292;2023-04-03T07:26:51;19.07;;;9.87;;
22929;SDS011;11630;42.660;23.292;2023-04-03T07:29:22;21.47;;;8.10;;
22929;SDS011;11630;42.660;23.292;2023-04-03T07:31:53;15.67;;;8.23;;
22929;SDS011;11630;42.660;23.292;2023-04-03T07:34:24;14.20;;;8.20;;
22929;SDS011;11630;42.660;23.292;2023-04-03T07:36:55;9.73;;;6.47;;
22929;SDS011;11630;42.660;23.292;2023-04-03T07:39:26;9.20;;;5.83;;
22929;SDS011;11630;42.660;23.292;2023-04-03T07:41:57;7.73;;;5.70;;
22929;SDS011;11630;42.660;23.292;2023-04-03T07:44:28;8.13;;;6.37;;
22929;SDS011;11630;42.660;23.292;2023-04-03T07:46:57;34.43;;;7.07;;
22929;SDS011;11630;42.660;23.292;2023-04-03T07:49:28;13.97;;;6.43;;
22929;SDS011;11630;42.660;23.292;2023-04-03T07:51:59;8.93;;;5.80;;
22929;SDS011;11630;42.660;23.292;2023-04-03T07:54:32;12.03;;;5.23;;
22929;SDS011;11630;42.660;23.292;2023-04-03T07:57:02;8.03;;;4.57;;
22929;SDS011;11630;42.660;23.292;2023-04-03T07:59:33;7.17;;;4.20;;
22929;SDS011;11630;42.660;23.292;2023-04-03T08:02:04;4.20;;;3.80;;
22929;SDS011;11630;42.660;23.292;2023-04-03T08:04:34;7.30;;;3.80;;
22929;SDS011;11630;42.660;23.292;2023-04-03T08:07:05;11.20;;;4.03;;
22929;SDS011;11630;42.660;23.292;2023-04-03T08:09:36;6.63;;;3.77;;
22929;SDS011;11630;42.660;23.292;2023-04-03T08:12:07;7.90;;;4.73;;
22929;SDS011;11630;42.660;23.292;2023-04-03T08:14:38;9.53;;;4.60;;
22929;SDS011;11630;42.660;23.292;2023-04-03T08:17:09;8.37;;;5.03;;
22929;SDS011;11630;42.660;23.292;2023-04-03T08:19:39;16.53;;;6.10;;
22929;SDS011;11630;42.660;23.292;2023-04-03T08:22:10;10.43;;;6.30;;
22929;SDS011;11630;42.660;23.292;2023-04-03T08:24:41;8.70;;;6.40;;
22929;SDS011;11630;42.660;23.292;2023-04-03T08:27:13;9.10;;;6.33;;
22929;SDS011;11630;42.660;23.292;2023-04-03T08:29:44;17.00;;;6.10;;
22929;SDS011;11630;42.660;23.292;2023-04-03T08:32:15;22.00;;;7.57;;
22929;SDS011;11630;42.660;23.292;2023-04-03T08:34:46;13.23;;;7.27;;
22929;SDS011;11630;42.660;23.292;2023-04-03T08:37:15;10.73;;;7.37;;
22929;SDS011;11630;42.660;23.292;2023-04-03T08:39:46;14.30;;;7.90;;
22929;SDS011;11630;42.660;23.292;2023-04-03T08:42:19;9.23;;;7.83;;
22929;SDS011;11630;42.660;23.292;2023-04-03T08:45:12;16.33;;;8.57;;
22929;SDS011;11630;42.660;23.292;2023-04-03T08:47:51;18.77;;;10.00;;
22929;SDS011;11630;42.660;23.292;2023-04-03T08:50:38;18.23;;;9.70;;
22929;SDS011;11630;42.660;23.292;2023-04-03T08:53:12;19.07;;;10.53;;
22929;SDS011;11630;42.660;23.292;2023-04-03T08:55:48;16.03;;;12.30;;
22929;SDS011;11630;42.660;23.292;2023-04-03T08:58:23;24.97;;;14.57;;
22929;SDS011;11630;42.660;23.292;2023-04-03T09:01:02;30.60;;;15.27;;
22929;SDS011;11630;42.660;23.292;2023-04-03T09:03:35;29.97;;;15.37;;
22929;SDS011;11630;42.660;23.292;2023-04-03T09:14:15;25.53;;;11.73;;
22929;SDS011;11630;42.660;23.292;2023-04-03T09:17:03;17.97;;;11.23;;
22929;SDS011;11630;42.660;23.292;2023-04-03T09:19:57;27.27;;;10.37;;
22929;SDS011;11630;42.660;23.292;2023-04-03T09:22:27;22.23;;;11.27;;
22929;SDS011;11630;42.660;23.292;2023-04-03T09:25:00;19.03;;;9.73;;
22929;SDS011;11630;42.660;23.292;2023-04-03T09:27:31;16.97;;;10.63;;
22929;SDS011;11630;42.660;23.292;2023-04-03T09:30:02;15.00;;;10.23;;
22929;SDS011;11630;42.660;23.292;2023-04-03T09:32:34;18.90;;;9.37;;
22929;SDS011;11630;42.660;23.292;2023-04-03T09:35:23;21.53;;;10.67;;
22929;SDS011;11630;42.660;23.292;2023-04-03T09:38:00;14.33;;;8.07;;
22929;SDS011;11630;42.660;23.292;2023-04-03T09:40:32;12.30;;;6.67;;
22929;SDS011;11630;42.660;23.292;2023-04-03T09:45:55;8.50;;;4.03;;
22929;SDS011;11630;42.660;23.292;2023-04-03T09:48:27;12.03;;;4.13;;
22929;SDS011;11630;42.660;23.292;2023-04-03T09:50:59;6.33;;;2.30;;
22929;SDS011;11630;42.660;23.292;2023-04-03T09:53:36;11.37;;;3.13;;
22929;SDS011;11630;42.660;23.292;2023-04-03T09:58:52;9.07;;;3.23;;
22929;SDS011;11630;42.660;23.292;2023-04-03T10:01:29;4.97;;;2.93;;
22929;SDS011;11630;42.660;23.292;2023-04-03T10:04:07;8.20;;;2.80;;
22929;SDS011;11630;42.660;23.292;2023-04-03T10:06:45;11.57;;;2.97;;
22929;SDS011;11630;42.660;23.292;2023-04-03T10:09:24;7.70;;;3.07;;
22929;SDS011;11630;42.660;23.292;2023-04-03T10:14:33;6.03;;;2.40;;
22929;SDS011;11630;42.660;23.292;2023-04-03T10:19:56;73.73;;;12.27;;
22929;SDS011;11630;42.660;23.292;2023-04-03T10:28:12;10.93;;;3.03;;
22929;SDS011;11630;42.660;23.292;2023-04-03T10:31:30;7.63;;;3.50;;
22929;SDS011;11630;42.660;23.292;2023-04-03T10:36:08;15.17;;;3.97;;
22929;SDS011;11630;42.660;23.292;2023-04-03T10:39:02;9.97;;;3.57;;
22929;SDS011;11630;42.660;23.292;2023-04-03T10:41:39;11.53;;;4.33;;
22929;SDS011;11630;42.660;23.292;2023-04-03T10:47:02;14.47;;;3.87;;
22929;SDS011;11630;42.660;23.292;2023-04-03T10:49:50;8.47;;;4.40;;
22929;SDS011;11630;42.660;23.292;2023-04-03T10:55:21;14.60;;;3.57;;
22929;SDS011;11630;42.660;23.292;2023-04-03T10:57:55;13.37;;;4.50;;
22929;SDS011;11630;42.660;23.292;2023-04-03T11:00:37;12.53;;;2.47;;
22929;SDS011;11630;42.660;23.292;2023-04-03T11:03:15;8.13;;;2.50;;
22929;SDS011;11630;42.660;23.292;2023-04-03T11:05:47;2.87;;;2.27;;
22929;SDS011;11630;42.660;23.292;2023-04-03T11:08:28;6.10;;;3.13;;
22929;SDS011;11630;42.660;23.292;2023-04-03T11:11:17;4.27;;;2.20;;
22929;SDS011;11630;42.660;23.292;2023-04-03T11:14:03;3.53;;;2.60;;
22929;SDS011;11630;42.660;23.292;2023-04-03T11:16:55;5.43;;;3.00;;
22929;SDS011;11630;42.660;23.292;2023-04-03T11:19:28;3.73;;;3.00;;
22929;SDS011;11630;42.660;23.292;2023-04-03T11:22:27;6.30;;;3.80;;
22929;SDS011;11630;42.660;23.292;2023-04-03T11:28:00;4.77;;;3.67;;
22929;SDS011;11630;42.660;23.292;2023-04-03T11:33:28;6.23;;;4.33;;
22929;SDS011;11630;42.660;23.292;2023-04-03T11:36:12;6.33;;;4.57;;
22929;SDS011;11630;42.660;23.292;2023-04-03T11:38:43;5.30;;;3.87;;
22929;SDS011;11630;42.660;23.292;2023-04-03T11:41:15;6.50;;;4.43;;
22929;SDS011;11630;42.660;23.292;2023-04-03T11:44:05;5.13;;;4.50;;
22929;SDS011;11630;42.660;23.292;2023-04-03T12:00:49;7.70;;;5.40;;
22929;SDS011;11630;42.660;23.292;2023-04-03T12:03:32;8.53;;;5.33;;
22929;SDS011;11630;42.660;23.292;2023-04-03T12:11:31;6.77;;;5.30;;
22929;SDS011;11630;42.660;23.292;2023-04-03T12:14:04;10.63;;;4.40;;
22929;SDS011;11630;42.660;23.292;2023-04-03T12:22:06;6.93;;;4.50;;
22929;SDS011;11630;42.660;23.292;2023-04-03T12:24:37;6.33;;;4.93;;
22929;SDS011;11630;42.660;23.292;2023-04-03T12:27:55;8.47;;;5.17;;
22929;SDS011;11630;42.660;23.292;2023-04-03T12:35:27;6.00;;;5.37;;
22929;SDS011;11630;42.660;23.292;2023-04-03T12:46:35;5.70;;;5.17;;
22929;SDS011;11630;42.660;23.292;2023-04-03T12:49:12;6.10;;;4.80;;
22929;SDS011;11630;42.660;23.292;2023-04-03T12:51:52;6.50;;;5.03;;
22929;SDS011;11630;42.660;23.292;2023-04-03T12:54:23;7.83;;;5.13;;
22929;SDS011;11630;42.660;23.292;2023-04-03T12:57:12;6.10;;;5.50;;
22929;SDS011;11630;42.660;23.292;2023-04-03T12:59:44;9.03;;;6.03;;
22929;SDS011;11630;42.660;23.292;2023-04-03T13:02:17;8.60;;;5.60;;
22929;SDS011;11630;42.660;23.292;2023-04-03T13:04:51;12.20;;;5.87;;
22929;SDS011;11630;42.660;23.292;2023-04-03T13:07:34;9.97;;;5.90;;
22929;SDS011;11630;42.660;23.292;2023-04-03T13:12:49;6.50;;;5.13;;
22929;SDS011;11630;42.660;23.292;2023-04-03T13:17:59;7.93;;;5.70;;
22929;SDS011;11630;42.660;23.292;2023-04-03T13:20:31;6.40;;;5.10;;
22929;SDS011;11630;42.660;23.292;2023-04-03T13:23:04;6.70;;;4.50;;
22929;SDS011;11630;42.660;23.292;2023-04-03T13:25:40;6.30;;;5.60;;
22929;SDS011;11630;42.660;23.292;2023-04-03T13:28:10;6.07;;;5.47;;
22929;SDS011;11630;42.660;23.292;2023-04-03T13:30:41;8.37;;;4.93;;
22929;SDS011;11630;42.660;23.292;2023-04-03T13:33:34;5.53;;;4.60;;
22929;SDS011;11630;42.660;23.292;2023-04-03T13:36:10;8.03;;;4.80;;
22929;SDS011;11630;42.660;23.292;2023-04-03T13:38:39;7.50;;;5.03;;
22929;SDS011;11630;42.660;23.292;2023-04-03T13:41:29;6.20;;;5.60;;
22929;SDS011;11630;42.660;23.292;2023-04-03T13:46:58;6.60;;;5.43;;
22929;SDS011;11630;42.660;23.292;2023-04-03T13:49:34;6.57;;;5.40;;
22929;SDS011;11630;42.660;23.292;2023-04-03T13:52:22;10.10;;;6.53;;
22929;SDS011;11630;42.660;23.292;2023-04-03T13:57:53;6.60;;;5.90;;
22929;SDS011;11630;42.660;23.292;2023-04-03T14:00:34;14.20;;;6.53;;
22929;SDS011;11630;42.660;23.292;2023-04-03T14:05:47;9.47;;;6.73;;
22929;SDS011;11630;42.660;23.292;2023-04-03T14:08:17;6.50;;;5.77;;
22929;SDS011;11630;42.660;23.292;2023-04-03T14:10:48;8.00;;;5.77;;
22929;SDS011;11630;42.660;23.292;2023-04-03T14:13:19;10.60;;;6.67;;
22929;SDS011;11630;42.660;23.292;2023-04-03T14:15:50;8.23;;;5.40;;
22929;SDS011;11630;42.660;23.292;2023-04-03T14:18:20;7.70;;;5.03;;
22929;SDS011;11630;42.660;23.292;2023-04-03T14:20:52;5.60;;;4.97;;
22929;SDS011;11630;42.660;23.292;2023-04-03T14:23:23;5.80;;;4.27;;
22929;SDS011;11630;42.660;23.292;2023-04-03T14:25:54;11.40;;;4.80;;
22929;SDS011;11630;42.660;23.292;2023-04-03T14:28:24;3.63;;;3.30;;
22929;SDS011;11630;42.660;23.292;2023-04-03T14:30:54;5.37;;;3.70;;
22929;SDS011;11630;42.660;23.292;2023-04-03T14:33:27;6.33;;;4.83;;
22929;SDS011;11630;42.660;23.292;2023-04-03T14:35:58;6.60;;;5.77;;
22929;SDS011;11630;42.660;23.292;2023-04-03T14:38:30;7.57;;;4.90;;
22929;SDS011;11630;42.660;23.292;2023-04-03T14:41:03;5.30;;;4.73;;
22929;SDS011;11630;42.660;23.292;2023-04-03T14:43:33;5.77;;;4.53;;
22929;SDS011;11630;42.660;23.292;2023-04-03T14:46:03;4.77;;;4.27;;
22929;SDS011;11630;42.660;23.292;2023-04-03T14:48:35;5.73;;;3.63;;
22929;SDS011;11630;42.660;23.292;2023-04-03T14:51:05;4.60;;;4.20;;
22929;SDS011;11630;42.660;23.292;2023-04-03T14:53:37;4.67;;;4.27;;
22929;SDS011;11630;42.660;23.292;2023-04-03T14:56:12;4.13;;;3.67;;
22929;SDS011;11630;42.660;23.292;2023-04-03T14:58:50;5.10;;;3.90;;
22929;SDS011;11630;42.660;23.292;2023-04-03T15:01:21;4.30;;;3.93;;
22929;SDS011;11630;42.660;23.292;2023-04-03T15:03:52;7.07;;;4.53;;
22929;SDS011;11630;42.660;23.292;2023-04-03T15:06:23;3.90;;;3.53;;
22929;SDS011;11630;42.660;23.292;2023-04-03T15:08:54;7.37;;;3.43;;
22929;SDS011;11630;42.660;23.292;2023-04-03T15:11:25;3.60;;;3.40;;
22929;SDS011;11630;42.660;23.292;2023-04-03T15:13:57;5.97;;;3.73;;
22929;SDS011;11630;42.660;23.292;2023-04-03T15:16:27;3.97;;;3.60;;
22929;SDS011;11630;42.660;23.292;2023-04-03T15:18:58;8.47;;;4.60;;
22929;SDS011;11630;42.660;23.292;2023-04-03T15:21:29;6.53;;;4.60;;
22929;SDS011;11630;42.660;23.292;2023-04-03T15:24:00;4.53;;;4.03;;
22929;SDS011;11630;42.660;23.292;2023-04-03T15:26:31;5.67;;;4.27;;
22929;SDS011;11630;42.660;23.292;2023-04-03T15:29:03;5.50;;;4.30;;
22929;SDS011;11630;42.660;23.292;2023-04-03T15:31:35;5.07;;;4.53;;
22929;SDS011;11630;42.660;23.292;2023-04-03T15:34:06;5.33;;;4.30;;
22929;SDS011;11630;42.660;23.292;2023-04-03T15:36:37;5.70;;;5.07;;
22929;SDS011;11630;42.660;23.292;2023-04-03T15:39:08;6.83;;;5.30;;
22929;SDS011;11630;42.660;23.292;2023-04-03T15:41:39;6.43;;;4.50;;
22929;SDS011;11630;42.660;23.292;2023-04-03T15:44:11;7.57;;;5.53;;
22929;SDS011;11630;42.660;23.292;2023-04-03T15:46:42;6.50;;;5.70;;
22929;SDS011;11630;42.660;23.292;2023-04-03T15:49:17;6.40;;;5.27;;
22929;SDS011;11630;42.660;23.292;2023-04-03T15:51:49;9.77;;;6.43;;
22929;SDS011;11630;42.660;23.292;2023-04-03T15:54:20;6.00;;;5.40;;
22929;SDS011;11630;42.660;23.292;2023-04-03T15:56:52;6.87;;;5.67;;
22929;SDS011;11630;42.660;23.292;2023-04-03T15:59:22;7.13;;;6.07;;
22929;SDS011;11630;42.660;23.292;2023-04-03T16:01:53;8.07;;;5.80;;
22929;SDS011;11630;42.660;23.292;2023-04-03T16:04:24;7.50;;;5.97;;
22929;SDS011;11630;42.660;23.292;2023-04-03T16:06:55;5.90;;;5.30;;
22929;SDS011;11630;42.660;23.292;2023-04-03T16:09:25;7.40;;;5.17;;
22929;SDS011;11630;42.660;23.292;2023-04-03T16:11:56;6.57;;;5.87;;
22929;SDS011;11630;42.660;23.292;2023-04-03T16:14:28;6.80;;;6.10;;
22929;SDS011;11630;42.660;23.292;2023-04-03T16:16:58;7.13;;;6.10;;
22929;SDS011;11630;42.660;23.292;2023-04-03T16:19:29;10.77;;;6.17;;
22929;SDS011;11630;42.660;23.292;2023-04-03T16:21:59;10.20;;;6.67;;
22929;SDS011;11630;42.660;23.292;2023-04-03T16:24:31;6.63;;;5.63;;
22929;SDS011;11630;42.660;23.292;2023-04-03T16:27:02;9.30;;;6.63;;
22929;SDS011;11630;42.660;23.292;2023-04-03T16:29:34;9.83;;;7.20;;
22929;SDS011;11630;42.660;23.292;2023-04-03T16:32:04;7.50;;;6.10;;
22929;SDS011;11630;42.660;23.292;2023-04-03T16:34:34;7.63;;;5.37;;
22929;SDS011;11630;42.660;23.292;2023-04-03T16:37:06;8.97;;;6.50;;
22929;SDS011;11630;42.660;23.292;2023-04-03T16:39:37;10.90;;;5.50;;